Weather at Valmontone Airfield

Public forecast

Using degrees Celsius for public forecast. Weather courtesy of forecast.io.

Closest aviation weather report (METAR) to Valmontone Airfield

Closest report is Ciampino–G. B. Pastine International Airport, 12.2 nm (22.7 km) W.

2024/07/13 00:50 (retrieved 19 minutes ago)

LIRA 130050Z 18002KT CAVOK 24/14 Q1011

Closest aviation forecast (TAF) to Valmontone Airfield

Forecast is more than 12 hours old.

Closest forecast is Grosseto Air Base, 99.5 nm (184.3 km) NW.

2024/07/11 09:24 (retrieved 2 days ago)

TAF TAF LIRS 110800Z 1109/1121 24012KT CAVOK